Tiger — 9HA2271 — position and weather

sailwx.info

Track history (hours):
 
Tides and Currents Weather Stations Pressure Air Temp Water Temp Dewpoint Dewpoint Depression Visibility Wind Speed Wind Dir Waves Ship Positions

Tiger

Last reported at 2015-Aug-26 14:33 UTC. Time now 2015-Aug-27 20:42 UTC.
Position N 48°30' W 126°55'.

Length 232 m; draft 8.6 m.

Type: Cargo ship. MMSI: 248223000.

Date/timePositionNaut miles runAvg speedWind from/ knotsBaromVisibWave heightAir tempDewpointWater temp
2015-Aug-26 14:33N 48°30' W 126°55'1818.3
2015-Aug-26 13:33N 48°31' W 126°27'1817.9
2015-Aug-26 12:33N 48°31' W 126°00'1818.1
2015-Aug-26 11:34N 48°31' W 125°33'1818.2
2015-Aug-26 10:34N 48°30' W 125°06'4318.9
2015-Aug-26 08:16N 48°19' W 124°02'1418.6
2015-Aug-26 07:32N 48°16' W 123°43'1515.4
2015-Aug-26 06:33N 48°09' W 123°22'1616.5
2015-Aug-26 05:33N 48°12' W 122°58'1716.9
2015-Aug-26 04:33N 48°02' W 122°38'1918.8
2015-Aug-26 03:33N 47°45' W 122°26'1919.2
2015-Aug-26 02:33N 47°26' W 122°23'10 9.4
2015-Aug-26 01:27N 47°16' W 122°24'1 0.5
2015-Aug-26 00:31N 47°16' W 122°23'0 0.0
2015-Aug-25 23:30N 47°16' W 122°23'0 0.0
2015-Aug-25 22:31N 47°16' W 122°23'0 0.0
2015-Aug-25 21:34N 47°16' W 122°23'0 0.0
2015-Aug-25 20:33N 47°16' W 122°23'0 0.0
2015-Aug-25 19:16N 47°16' W 122°23'0 0.0
2015-Aug-25 18:28N 47°16' W 122°23'0 0.0
2015-Aug-25 17:27N 47°16' W 122°23'0 0.0
2015-Aug-25 16:25N 47°16' W 122°23'0 0.0
2015-Aug-25 14:08N 47°16' W 122°23'1 1.3
2015-Aug-25 13:33N 47°16' W 122°24'5 4.6
2015-Aug-25 12:34N 47°20' W 122°27'1616.4
2015-Aug-25 11:33N 47°37' W 122°28'1818.4
2015-Aug-25 10:34N 47°55' W 122°30'1916.6
2015-Aug-25 09:26N 48°10' W 122°47'1617.9
2015-Aug-25 08:33N 48°12' W 123°10'1313.0
2015-Aug-25 07:33N 48°12' W 123°29'1918.8
2015-Aug-25 06:31N 48°15' W 123°58'4219.2
2015-Aug-25 04:20N 48°29' W 124°58'1418.3
2015-Aug-25 03:33N 48°23' W 125°18'2219.7
2015-Aug-25 02:27N 48°09' W 125°42'73017.3
2015-Aug-23 08:13N 35°60' W 126°39'1419.3
2015-Aug-23 07:30N 35°49' W 126°30'4719.7
2015-Aug-23 05:07N 35°10' W 125°57'13416.8
2015-Aug-22 21:07N 33°45' W 123°50'9616.4
2015-Aug-22 15:18N 33°45' W 121°55'8317.0
2015-Aug-22 10:26N 33°45' W 120°16'1517.2
2015-Aug-22 09:32N 33°46' W 119°58'1818.1
2015-Aug-22 08:33N 33°50' W 119°36'45 1.2
2015-Aug-20 18:04N 33°29' W 118°48'712.1
2015-Aug-20 17:29N 33°23' W 118°44'1112.2
2015-Aug-20 16:33N 33°14' W 118°35'1211.7
2015-Aug-20 15:33N 33°05' W 118°26'1211.5
2015-Aug-20 14:33N 32°57' W 118°16'1211.7
2015-Aug-20 13:33N 32°50' W 118°06'1615.9
2015-Aug-20 12:33N 32°38' W 117°53'1817.9
2015-Aug-20 11:33N 32°21' W 117°46'1717.6
2015-Aug-20 10:34N 32°05' W 117°38'3817.4
2015-Aug-20 08:21N 31°29' W 117°21'3116.9
2015-Aug-20 06:32N 31°00' W 117°09'2216.4
2015-Aug-20 05:11N 30°40' W 116°60'1016.6
2015-Aug-20 04:34N 30°30' W 116°55'1716.8
2015-Aug-20 03:34N 30°14' W 116°48'1716.4
2015-Aug-20 02:33N 29°59' W 116°42'3115.6
2015-Aug-20 00:33N 29°30' W 116°29'1211.7
2015-Aug-19 23:33N 29°19' W 116°24'1010.0
2015-Aug-19 22:34N 29°09' W 116°20'2217.5
2015-Aug-19 21:19N 28°49' W 116°11'1818.1
2015-Aug-19 20:21N 28°33' W 116°04'1417.3
2015-Aug-19 19:32N 28°19' W 115°58'  
Track history (hours):
 
Tides and Currents Weather Stations Pressure Air Temp Water Temp Dewpoint Dewpoint Depression Visibility Wind Speed Wind Dir Waves Ship Positions

Tiger

Last reported at 2015-Aug-26 14:33 UTC. Time now 2015-Aug-27 20:42 UTC.
Position N 48°30' W 126°55'.

Length 232 m; draft 8.6 m.

Type: Cargo ship. MMSI: 248223000.

Date/timePositionNaut miles runAvg speedWind from/ knotsBaromVisibWave heightAir tempDewpointWater temp
2015-Aug-26 14:33N 48°30' W 126°55'1818.3
2015-Aug-26 13:33N 48°31' W 126°27'1817.9
2015-Aug-26 12:33N 48°31' W 126°00'1818.1
2015-Aug-26 11:34N 48°31' W 125°33'1818.2
2015-Aug-26 10:34N 48°30' W 125°06'4318.9
2015-Aug-26 08:16N 48°19' W 124°02'1418.6
2015-Aug-26 07:32N 48°16' W 123°43'1515.4
2015-Aug-26 06:33N 48°09' W 123°22'1616.5
2015-Aug-26 05:33N 48°12' W 122°58'1716.9
2015-Aug-26 04:33N 48°02' W 122°38'1918.8
2015-Aug-26 03:33N 47°45' W 122°26'1919.2
2015-Aug-26 02:33N 47°26' W 122°23'10 9.4
2015-Aug-26 01:27N 47°16' W 122°24'1 0.5
2015-Aug-26 00:31N 47°16' W 122°23'0 0.0
2015-Aug-25 23:30N 47°16' W 122°23'0 0.0
2015-Aug-25 22:31N 47°16' W 122°23'0 0.0
2015-Aug-25 21:34N 47°16' W 122°23'0 0.0
2015-Aug-25 20:33N 47°16' W 122°23'0 0.0
2015-Aug-25 19:16N 47°16' W 122°23'0 0.0
2015-Aug-25 18:28N 47°16' W 122°23'0 0.0
2015-Aug-25 17:27N 47°16' W 122°23'0 0.0
2015-Aug-25 16:25N 47°16' W 122°23'0 0.0
2015-Aug-25 14:08N 47°16' W 122°23'1 1.3
2015-Aug-25 13:33N 47°16' W 122°24'5 4.6
2015-Aug-25 12:34N 47°20' W 122°27'1616.4
2015-Aug-25 11:33N 47°37' W 122°28'1818.4
2015-Aug-25 10:34N 47°55' W 122°30'1916.6
2015-Aug-25 09:26N 48°10' W 122°47'1617.9
2015-Aug-25 08:33N 48°12' W 123°10'1313.0
2015-Aug-25 07:33N 48°12' W 123°29'1918.8
2015-Aug-25 06:31N 48°15' W 123°58'4219.2
2015-Aug-25 04:20N 48°29' W 124°58'1418.3
2015-Aug-25 03:33N 48°23' W 125°18'2219.7
2015-Aug-25 02:27N 48°09' W 125°42'73017.3
2015-Aug-23 08:13N 35°60' W 126°39'1419.3
2015-Aug-23 07:30N 35°49' W 126°30'4719.7
2015-Aug-23 05:07N 35°10' W 125°57'13416.8
2015-Aug-22 21:07N 33°45' W 123°50'9616.4
2015-Aug-22 15:18N 33°45' W 121°55'8317.0
2015-Aug-22 10:26N 33°45' W 120°16'1517.2
2015-Aug-22 09:32N 33°46' W 119°58'1818.1
2015-Aug-22 08:33N 33°50' W 119°36'45 1.2
2015-Aug-20 18:04N 33°29' W 118°48'712.1
2015-Aug-20 17:29N 33°23' W 118°44'1112.2
2015-Aug-20 16:33N 33°14' W 118°35'1211.7
2015-Aug-20 15:33N 33°05' W 118°26'1211.5
2015-Aug-20 14:33N 32°57' W 118°16'1211.7
2015-Aug-20 13:33N 32°50' W 118°06'1615.9
2015-Aug-20 12:33N 32°38' W 117°53'1817.9
2015-Aug-20 11:33N 32°21' W 117°46'1717.6
2015-Aug-20 10:34N 32°05' W 117°38'3817.4
2015-Aug-20 08:21N 31°29' W 117°21'3116.9
2015-Aug-20 06:32N 31°00' W 117°09'2216.4
2015-Aug-20 05:11N 30°40' W 116°60'1016.6
2015-Aug-20 04:34N 30°30' W 116°55'1716.8
2015-Aug-20 03:34N 30°14' W 116°48'1716.4
2015-Aug-20 02:33N 29°59' W 116°42'3115.6
2015-Aug-20 00:33N 29°30' W 116°29'1211.7
2015-Aug-19 23:33N 29°19' W 116°24'1010.0
2015-Aug-19 22:34N 29°09' W 116°20'2217.5
2015-Aug-19 21:19N 28°49' W 116°11'1818.1
2015-Aug-19 20:21N 28°33' W 116°04'1417.3
2015-Aug-19 19:32N 28°19' W 115°58'  

Dump ship's entire track history